CDT,Max TemperatureF,Mean TemperatureF,Min TemperatureF,Max Dew PointF,MeanDew PointF,Min DewpointF,Max Humidity, Mean Humidity, Min Humidity, Max Sea Level PressureIn, Mean Sea Level PressureIn, Min Sea Level PressureIn, Max VisibilityMiles, Mean VisibilityMiles, Min VisibilityMiles, Max Wind SpeedMPH, Mean Wind SpeedMPH, Max Gust SpeedMPH,PrecipitationIn, CloudCover, Events, WindDirDegrees
2013-8-1,90,81,71,75,71,68,94,72,50,30.03,29.98,29.95,10,9,2,15,6,18,0.09,1,Rain,30
2013-8-2,93,80,66,69,66,63,93,66,38,30.03,29.99,29.96,10,9,6,8,3,14,0.00,1,,60
2013-8-3,90,81,71,74,72,68,94,77,59,30.05,30.01,29.96,10,10,7,14,5,17,0.00,2,Thunderstorm,356
2013-8-4,90,81,71,73,71,69,100,76,52,30.11,30.06,30.01,10,9,5,13,5,17,0.00,2,,38
2013-8-5,90,81,72,77,72,68,94,75,55,30.08,30.00,29.94,10,9,2,10,4,13,0.16,4,Rain-Thunderstorm,129
2013-8-6,93,84,74,76,73,70,94,77,60,29.99,29.94,29.91,10,9,0,26,5,44,1.52,4,Rain-Thunderstorm,166
2013-8-7,95,85,74,77,74,72,93,73,52,29.97,29.93,29.88,10,10,2,15,5,21,0.11,2,Rain-Thunderstorm,200
2013-8-8,93,85,76,76,74,72,94,77,60,29.97,29.93,29.88,10,10,7,20,4,23,0.00,3,Thunderstorm,185
2013-8-9,91,83,74,77,74,70,94,79,64,30.04,29.99,29.94,10,8,0,22,6,29,0.84,2,Fog-Rain-Thunderstorm,187
2013-8-10,89,81,72,77,74,70,94,81,68,30.11,30.06,30.03,10,10,7,15,4,18,0.25,2,Rain-Thunderstorm,207
2013-8-11,91,82,73,75,73,71,94,79,63,30.13,30.09,30.05,10,8,2,17,3,22,0.49,3,Rain-Thunderstorm,195
2013-8-12,89,81,72,76,73,70,93,78,63,30.10,30.04,29.95,10,8,0,15,4,22,0.08,2,Fog-Rain-Thunderstorm,249
2013-8-13,88,80,72,75,72,70,93,76,59,30.00,29.96,29.91,10,10,2,14,4,18,0.30,4,Rain,330
2013-8-14,83,73,63,71,64,59,87,67,47,30.04,29.99,29.94,10,10,9,17,10,21,0.00,3,,43
2013-8-15,84,72,59,62,59,56,90,67,43,30.05,30.01,29.97,10,10,10,29,5,33,0.00,1,,27
2013-8-16,84,75,66,67,65,62,90,71,51,30.06,30.02,29.98,10,10,8,12,5,15,0.00,6,,136
2013-8-17,82,75,68,66,65,64,90,74,58,30.08,30.05,30.01,10,10,10,13,5,16,0.00,6,,107
2013-8-18,84,75,65,68,66,63,97,78,58,30.13,30.09,30.05,10,10,6,15,5,21,0.00,6,,138
2013-8-19,81,76,70,72,69,68,97,83,69,30.10,30.06,30.00,10,10,6,10,4,14,T,8,,67
2013-8-20,90,80,70,73,71,67,94,71,47,30.12,30.06,30.02,10,9,2,16,3,20,0.00,4,,164
2013-8-21,90,81,72,73,72,70,94,75,55,30.17,30.10,30.05,10,9,5,14,4,18,0.02,4,Rain-Thunderstorm,180
2013-8-22,94,83,71,73,71,67,93,69,44,30.13,30.07,30.00,10,10,10,16,2,20,0.00,2,Thunderstorm,109
2013-8-23,92,83,74,74,72,69,87,68,49,30.07,30.02,29.97,10,10,10,10,3,14,0.00,3,Thunderstorm,95
2013-8-24,93,83,72,74,71,70,94,72,49,30.14,30.09,30.03,10,9,4,16,3,21,0.01,1,Rain-Thunderstorm,119
2013-8-25,89,82,74,73,70,68,88,71,53,30.27,30.22,30.15,10,9,6,15,7,20,0.00,3,,155
2013-8-26,87,78,68,69,64,60,90,66,42,30.27,30.21,30.14,10,10,8,13,3,20,0.00,1,,152
2013-8-27,88,76,63,66,63,60,93,68,42,30.16,30.11,30.05,10,10,7,10,2,15,0.00,0,,158
2013-8-28,92,79,66,68,65,63,93,67,41,30.10,30.05,30.01,10,10,7,7,2,12,0.00,0,,207
2013-8-29,95,82,68,72,67,63,90,63,36,30.08,30.02,29.97,10,9,6,10,2,15,0.00,0,,346
2013-8-30,97,85,72,71,70,68,93,68,42,30.02,29.96,29.90,10,9,6,10,2,15,0.00,0,,273
2013-8-31,96,84,71,71,70,67,93,67,41,29.95,29.89,29.84,10,9,5,10,2,15,0.00,1,,254